Chantal — A8WQ3 — position and weather

sailwx.info

Track history (hours):
 
Tides and Currents Weather Stations Pressure Air Temp Water Temp Dewpoint Dewpoint Depression Visibility Wind Speed Wind Dir Waves Ship Positions

Chantal

Last reported at 2014-Jul-14 11:17 UTC. Time now 2014-Jul-31 19:36 UTC.
Position N 33°13' W 120°48'.
Warning: this ship's position is 17 days out of date.

Length 228 m; draft 9 m.

Type: Tanker. MMSI: 636014805.

Date/timePositionNaut miles runAvg speedWind from/ knotsBaromVisibWave heightAir tempDewpointWater temp
2014-Jul-14 11:17N 33°13' W 120°48'1113.4
2014-Jul-14 10:27N 33°23' W 120°53'2713.2
2014-Jul-14 08:23N 33°48' W 121°07'6613.2
2014-Jul-14 03:22N 34°48' W 121°40'911.4
2014-Jul-14 02:32N 34°57' W 121°45'7 7.3
2014-Jul-14 01:33N 35°03' W 121°49'1413.8
2014-Jul-14 00:33N 35°16' W 121°56'1414.1
2014-Jul-13 23:33N 35°29' W 122°03'1413.8
2014-Jul-13 22:33N 35°41' W 122°10'1413.8
2014-Jul-13 21:33N 35°53' W 122°17'1413.9
2014-Jul-13 20:32N 36°06' W 122°25'1313.6
2014-Jul-13 19:33N 36°18' W 122°32'1413.5
2014-Jul-13 18:33N 36°31' W 122°39'1313.5
2014-Jul-13 17:33N 36°42' W 122°47'1413.6
2014-Jul-13 16:33N 36°55' W 122°54'1313.3
2014-Jul-13 15:33N 37°07' W 123°01'1313.1
2014-Jul-13 14:33N 37°20' W 123°05'1313.3
2014-Jul-13 13:33N 37°33' W 123°05'1312.8
2014-Jul-13 12:33N 37°40' W 122°52'1212.1
2014-Jul-13 11:33N 37°46' W 122°38'1312.7
2014-Jul-13 10:33N 37°46' W 122°22'1 1.3
2014-Jul-13 09:33N 37°45' W 122°21'0 0.1
2014-Jul-13 08:33N 37°45' W 122°21'0 0.1
2014-Jul-13 07:33N 37°45' W 122°21'0 0.0
2014-Jul-13 06:33N 37°45' W 122°21'0 0.0
2014-Jul-13 05:33N 37°45' W 122°21'0 0.0
2014-Jul-13 04:33N 37°45' W 122°21'0 0.1
2014-Jul-13 03:33N 37°45' W 122°21'0 0.1
2014-Jul-13 02:33N 37°45' W 122°21'0 0.1
2014-Jul-13 01:33N 37°45' W 122°21'0 0.1
2014-Jul-13 00:33N 37°45' W 122°21'0 0.0
2014-Jul-12 23:33N 37°45' W 122°21'0 0.0
2014-Jul-12 22:33N 37°45' W 122°21'0 0.1
2014-Jul-12 21:33N 37°45' W 122°21'0 0.2
2014-Jul-12 20:33N 37°45' W 122°21'9 9.3
2014-Jul-12 19:33N 37°53' W 122°26'9 9.3
2014-Jul-12 18:33N 38°02' W 122°22'10 9.8
2014-Jul-12 17:30N 38°02' W 122°09'1 0.0
2014-Jul-11 05:33N 38°02' W 122°08'7 7.2
2014-Jul-11 04:31N 38°04' W 122°17'8 8.4
2014-Jul-11 03:33N 37°59' W 122°26'9 8.6
2014-Jul-11 02:33N 37°51' W 122°26'1212.1
2014-Jul-11 01:34N 37°45' W 122°40'9 9.3
2014-Jul-11 00:34N 37°40' W 122°50'8 8.3
2014-Jul-10 23:33N 37°35' W 122°58'7 7.0
2014-Jul-10 22:33N 37°29' W 123°03'8 7.5
2014-Jul-10 21:33N 37°22' W 123°04'8 6.6
2014-Jul-10 20:22N 37°19' W 123°13'8 9.3
2014-Jul-10 19:33N 37°23' W 123°22'2 1.2
2014-Jul-10 18:18N 37°24' W 123°23'0 0.4
2014-Jul-10 17:33N 37°23' W 123°23'0 0.3
2014-Jul-10 16:12N 37°23' W 123°23'1 0.2
2014-Jul-10 13:16N 37°23' W 123°23'6 7.5
2014-Jul-10 12:26N 37°18' W 123°27'183 9.1
2014-Jul-09 16:16N 34°27' W 122°07'4311.0
2014-Jul-09 12:21N 33°53' W 121°34'910.9
2014-Jul-09 11:34N 33°46' W 121°28'1110.8
2014-Jul-09 10:33N 33°38' W 121°20'1110.7
2014-Jul-09 09:33N 33°30' W 121°12'1110.7
2014-Jul-09 08:33N 33°22' W 121°04'1110.5
2014-Jul-09 07:29N 33°13' W 120°55'1010.4
2014-Jul-09 06:30N 33°05' W 120°47'1210.3
2014-Jul-09 05:23N 32°56' W 120°39'910.3
2014-Jul-09 04:33N 32°49' W 120°32'2410.8
2014-Jul-09 02:18N 32°30' W 120°14'810.9
2014-Jul-09 01:33N 32°24' W 120°08'1110.9
2014-Jul-09 00:34N 32°16' W 119°60'1110.9
2014-Jul-08 23:33N 32°07' W 119°52'1110.7
2014-Jul-08 22:33N 31°59' W 119°43'1110.6
2014-Jul-08 21:34N 31°50' W 119°36'1111.1
2014-Jul-08 20:33N 31°42' W 119°28'1111.0
2014-Jul-08 19:34N 31°33' W 119°20'1111.0
2014-Jul-08 18:34N 31°24' W 119°12'1111.5
2014-Jul-08 17:34N 31°15' W 119°04'1111.5
2014-Jul-08 16:34N 31°06' W 118°56'1211.6
2014-Jul-08 15:33N 30°57' W 118°47'1211.8
2014-Jul-08 14:34N 30°48' W 118°39'1211.6
2014-Jul-08 13:34N 30°38' W 118°31'1211.5
2014-Jul-08 12:33N 30°29' W 118°23'1111.3
2014-Jul-08 11:33N 30°20' W 118°15'1211.6
2014-Jul-08 10:33N 30°11' W 118°06'1211.7
2014-Jul-08 09:34N 30°02' W 117°58'1211.9
2014-Jul-08 08:33N 29°53' W 117°50'1211.8
2014-Jul-08 07:33N 29°43' W 117°41'1111.7
2014-Jul-08 06:34N 29°34' W 117°33'1311.4
2014-Jul-08 05:27N 29°24' W 117°24'1511.3
2014-Jul-08 04:10N 29°13' W 117°14'811.5
2014-Jul-08 03:28N 29°07' W 117°08'1111.8
2014-Jul-08 02:32N 28°58' W 117°01'  
Track history (hours):
 
Tides and Currents Weather Stations Pressure Air Temp Water Temp Dewpoint Dewpoint Depression Visibility Wind Speed Wind Dir Waves Ship Positions

Chantal

Last reported at 2014-Jul-14 11:17 UTC. Time now 2014-Jul-31 19:36 UTC.
Position N 33°13' W 120°48'.
Warning: this ship's position is 17 days out of date.

Length 228 m; draft 9 m.

Type: Tanker. MMSI: 636014805.

Date/timePositionNaut miles runAvg speedWind from/ knotsBaromVisibWave heightAir tempDewpointWater temp
2014-Jul-14 11:17N 33°13' W 120°48'1113.4
2014-Jul-14 10:27N 33°23' W 120°53'2713.2
2014-Jul-14 08:23N 33°48' W 121°07'6613.2
2014-Jul-14 03:22N 34°48' W 121°40'911.4
2014-Jul-14 02:32N 34°57' W 121°45'7 7.3
2014-Jul-14 01:33N 35°03' W 121°49'1413.8
2014-Jul-14 00:33N 35°16' W 121°56'1414.1
2014-Jul-13 23:33N 35°29' W 122°03'1413.8
2014-Jul-13 22:33N 35°41' W 122°10'1413.8
2014-Jul-13 21:33N 35°53' W 122°17'1413.9
2014-Jul-13 20:32N 36°06' W 122°25'1313.6
2014-Jul-13 19:33N 36°18' W 122°32'1413.5
2014-Jul-13 18:33N 36°31' W 122°39'1313.5
2014-Jul-13 17:33N 36°42' W 122°47'1413.6
2014-Jul-13 16:33N 36°55' W 122°54'1313.3
2014-Jul-13 15:33N 37°07' W 123°01'1313.1
2014-Jul-13 14:33N 37°20' W 123°05'1313.3
2014-Jul-13 13:33N 37°33' W 123°05'1312.8
2014-Jul-13 12:33N 37°40' W 122°52'1212.1
2014-Jul-13 11:33N 37°46' W 122°38'1312.7
2014-Jul-13 10:33N 37°46' W 122°22'1 1.3
2014-Jul-13 09:33N 37°45' W 122°21'0 0.1
2014-Jul-13 08:33N 37°45' W 122°21'0 0.1
2014-Jul-13 07:33N 37°45' W 122°21'0 0.0
2014-Jul-13 06:33N 37°45' W 122°21'0 0.0
2014-Jul-13 05:33N 37°45' W 122°21'0 0.0
2014-Jul-13 04:33N 37°45' W 122°21'0 0.1
2014-Jul-13 03:33N 37°45' W 122°21'0 0.1
2014-Jul-13 02:33N 37°45' W 122°21'0 0.1
2014-Jul-13 01:33N 37°45' W 122°21'0 0.1
2014-Jul-13 00:33N 37°45' W 122°21'0 0.0
2014-Jul-12 23:33N 37°45' W 122°21'0 0.0
2014-Jul-12 22:33N 37°45' W 122°21'0 0.1
2014-Jul-12 21:33N 37°45' W 122°21'0 0.2
2014-Jul-12 20:33N 37°45' W 122°21'9 9.3
2014-Jul-12 19:33N 37°53' W 122°26'9 9.3
2014-Jul-12 18:33N 38°02' W 122°22'10 9.8
2014-Jul-12 17:30N 38°02' W 122°09'1 0.0
2014-Jul-11 05:33N 38°02' W 122°08'7 7.2
2014-Jul-11 04:31N 38°04' W 122°17'8 8.4
2014-Jul-11 03:33N 37°59' W 122°26'9 8.6
2014-Jul-11 02:33N 37°51' W 122°26'1212.1
2014-Jul-11 01:34N 37°45' W 122°40'9 9.3
2014-Jul-11 00:34N 37°40' W 122°50'8 8.3
2014-Jul-10 23:33N 37°35' W 122°58'7 7.0
2014-Jul-10 22:33N 37°29' W 123°03'8 7.5
2014-Jul-10 21:33N 37°22' W 123°04'8 6.6
2014-Jul-10 20:22N 37°19' W 123°13'8 9.3
2014-Jul-10 19:33N 37°23' W 123°22'2 1.2
2014-Jul-10 18:18N 37°24' W 123°23'0 0.4
2014-Jul-10 17:33N 37°23' W 123°23'0 0.3
2014-Jul-10 16:12N 37°23' W 123°23'1 0.2
2014-Jul-10 13:16N 37°23' W 123°23'6 7.5
2014-Jul-10 12:26N 37°18' W 123°27'183 9.1
2014-Jul-09 16:16N 34°27' W 122°07'4311.0
2014-Jul-09 12:21N 33°53' W 121°34'910.9
2014-Jul-09 11:34N 33°46' W 121°28'1110.8
2014-Jul-09 10:33N 33°38' W 121°20'1110.7
2014-Jul-09 09:33N 33°30' W 121°12'1110.7
2014-Jul-09 08:33N 33°22' W 121°04'1110.5
2014-Jul-09 07:29N 33°13' W 120°55'1010.4
2014-Jul-09 06:30N 33°05' W 120°47'1210.3
2014-Jul-09 05:23N 32°56' W 120°39'910.3
2014-Jul-09 04:33N 32°49' W 120°32'2410.8
2014-Jul-09 02:18N 32°30' W 120°14'810.9
2014-Jul-09 01:33N 32°24' W 120°08'1110.9
2014-Jul-09 00:34N 32°16' W 119°60'1110.9
2014-Jul-08 23:33N 32°07' W 119°52'1110.7
2014-Jul-08 22:33N 31°59' W 119°43'1110.6
2014-Jul-08 21:34N 31°50' W 119°36'1111.1
2014-Jul-08 20:33N 31°42' W 119°28'1111.0
2014-Jul-08 19:34N 31°33' W 119°20'1111.0
2014-Jul-08 18:34N 31°24' W 119°12'1111.5
2014-Jul-08 17:34N 31°15' W 119°04'1111.5
2014-Jul-08 16:34N 31°06' W 118°56'1211.6
2014-Jul-08 15:33N 30°57' W 118°47'1211.8
2014-Jul-08 14:34N 30°48' W 118°39'1211.6
2014-Jul-08 13:34N 30°38' W 118°31'1211.5
2014-Jul-08 12:33N 30°29' W 118°23'1111.3
2014-Jul-08 11:33N 30°20' W 118°15'1211.6
2014-Jul-08 10:33N 30°11' W 118°06'1211.7
2014-Jul-08 09:34N 30°02' W 117°58'1211.9
2014-Jul-08 08:33N 29°53' W 117°50'1211.8
2014-Jul-08 07:33N 29°43' W 117°41'1111.7
2014-Jul-08 06:34N 29°34' W 117°33'1311.4
2014-Jul-08 05:27N 29°24' W 117°24'1511.3
2014-Jul-08 04:10N 29°13' W 117°14'811.5
2014-Jul-08 03:28N 29°07' W 117°08'1111.8
2014-Jul-08 02:32N 28°58' W 117°01'  

Dump ship's entire track history